BBC Congo — V2EL3 — position and weather

sailwx.info

Track history (hours):
 
Tides and Currents Weather Stations Pressure Air Temp Water Temp Dewpoint Dewpoint Depression Visibility Wind Speed Wind Dir Waves Ship Positions

BBC Congo

Last reported at 2016-May-26 23:33 UTC. Time now 2016-May-30 12:43 UTC.
Position N 01°15' E 104°02'.

Length 144 m; draft 6.8 m.

Type: Ship. MMSI: 305466000.

Date/timePositionNaut miles runAvg speedWind from/ knotsBaromVisibWave heightAir tempDewpointWater temp
2016-May-26 23:33N 01°15' E 104°02'1414.2
2016-May-26 22:33N 01°12' E 103°48'3 2.7
2016-May-26 21:33N 01°15' E 103°48'0 0.1
2016-May-26 20:33N 01°15' E 103°48'0 0.0
2016-May-26 19:33N 01°15' E 103°48'0 0.0
2016-May-26 18:33N 01°15' E 103°48'0 0.1
2016-May-26 17:24N 01°15' E 103°48'0 0.1
2016-May-26 16:33N 01°15' E 103°48'0 0.0
2016-May-26 15:33N 01°15' E 103°48'0 0.1
2016-May-26 14:30N 01°15' E 103°48'0 0.0
2016-May-26 13:21N 01°15' E 103°48'0 0.1
2016-May-26 12:33N 01°15' E 103°48'0 0.1
2016-May-26 11:30N 01°15' E 103°48'0 0.0
2016-May-26 10:33N 01°15' E 103°48'0 0.0
2016-May-26 09:33N 01°15' E 103°48'0 0.0
2016-May-26 08:33N 01°15' E 103°48'0 0.0
2016-May-26 07:30N 01°15' E 103°48'0 0.0
2016-May-26 06:33N 01°15' E 103°48'0 0.0
2016-May-26 05:33N 01°15' E 103°48'0 0.0
2016-May-26 04:27N 01°15' E 103°48'0 0.0
2016-May-26 03:33N 01°15' E 103°48'0 0.0
2016-May-26 02:27N 01°15' E 103°48'0 0.1
2016-May-26 01:33N 01°15' E 103°48'4 4.5
2016-May-26 00:33N 01°15' E 103°44'9 8.6
2016-May-25 23:33N 01°12' E 103°36'8 7.7
2016-May-25 22:33N 01°10' E 103°28'5212.7
2016-May-25 18:26N 01°40' E 102°45'1314.0
2016-May-25 17:32N 01°45' E 102°33'1414.3
2016-May-25 16:32N 01°52' E 102°21'6115.3
2016-May-25 12:33N 02°29' E 101°33'  
Track history (hours):
 
Tides and Currents Weather Stations Pressure Air Temp Water Temp Dewpoint Dewpoint Depression Visibility Wind Speed Wind Dir Waves Ship Positions

BBC Congo

Last reported at 2016-May-26 23:33 UTC. Time now 2016-May-30 12:43 UTC.
Position N 01°15' E 104°02'.

Length 144 m; draft 6.8 m.

Type: Ship. MMSI: 305466000.

Date/timePositionNaut miles runAvg speedWind from/ knotsBaromVisibWave heightAir tempDewpointWater temp
2016-May-26 23:33N 01°15' E 104°02'1414.2
2016-May-26 22:33N 01°12' E 103°48'3 2.7
2016-May-26 21:33N 01°15' E 103°48'0 0.1
2016-May-26 20:33N 01°15' E 103°48'0 0.0
2016-May-26 19:33N 01°15' E 103°48'0 0.0
2016-May-26 18:33N 01°15' E 103°48'0 0.1
2016-May-26 17:24N 01°15' E 103°48'0 0.1
2016-May-26 16:33N 01°15' E 103°48'0 0.0
2016-May-26 15:33N 01°15' E 103°48'0 0.1
2016-May-26 14:30N 01°15' E 103°48'0 0.0
2016-May-26 13:21N 01°15' E 103°48'0 0.1
2016-May-26 12:33N 01°15' E 103°48'0 0.1
2016-May-26 11:30N 01°15' E 103°48'0 0.0
2016-May-26 10:33N 01°15' E 103°48'0 0.0
2016-May-26 09:33N 01°15' E 103°48'0 0.0
2016-May-26 08:33N 01°15' E 103°48'0 0.0
2016-May-26 07:30N 01°15' E 103°48'0 0.0
2016-May-26 06:33N 01°15' E 103°48'0 0.0
2016-May-26 05:33N 01°15' E 103°48'0 0.0
2016-May-26 04:27N 01°15' E 103°48'0 0.0
2016-May-26 03:33N 01°15' E 103°48'0 0.0
2016-May-26 02:27N 01°15' E 103°48'0 0.1
2016-May-26 01:33N 01°15' E 103°48'4 4.5
2016-May-26 00:33N 01°15' E 103°44'9 8.6
2016-May-25 23:33N 01°12' E 103°36'8 7.7
2016-May-25 22:33N 01°10' E 103°28'5212.7
2016-May-25 18:26N 01°40' E 102°45'1314.0
2016-May-25 17:32N 01°45' E 102°33'1414.3
2016-May-25 16:32N 01°52' E 102°21'6115.3
2016-May-25 12:33N 02°29' E 101°33'  

Dump ship's entire track history